sensor_id;sensor_type;location;lat;lon;timestamp;pressure;altitude;pressure_sealevel;temperature;humidity
79690;BME280;69156;55.932;-3.238;2023-09-07T00:00:59;101391.52;;;16.81;73.67
79690;BME280;69156;55.932;-3.238;2023-09-07T00:03:24;101397.58;;;16.87;73.66
79690;BME280;69156;55.932;-3.238;2023-09-07T00:05:49;101392.72;;;16.76;73.69
79690;BME280;69156;55.932;-3.238;2023-09-07T00:08:14;101390.06;;;16.64;73.88
79690;BME280;69156;55.932;-3.238;2023-09-07T00:10:40;101384.07;;;16.83;73.74
79690;BME280;69156;55.932;-3.238;2023-09-07T00:13:06;101385.00;;;16.89;73.64
79690;BME280;69156;55.932;-3.238;2023-09-07T00:15:37;101388.16;;;16.92;73.50
79690;BME280;69156;55.932;-3.238;2023-09-07T00:17:57;101387.98;;;16.79;73.51
79690;BME280;69156;55.932;-3.238;2023-09-07T00:20:23;101393.25;;;17.03;73.20
79690;BME280;69156;55.932;-3.238;2023-09-07T00:22:48;101398.46;;;17.22;72.46
79690;BME280;69156;55.932;-3.238;2023-09-07T00:25:13;101400.11;;;16.84;72.42
79690;BME280;69156;55.932;-3.238;2023-09-07T00:27:39;101400.98;;;17.07;72.54
79690;BME280;69156;55.932;-3.238;2023-09-07T00:30:05;101404.79;;;16.87;73.06
79690;BME280;69156;55.932;-3.238;2023-09-07T00:32:30;101410.24;;;16.75;73.40
79690;BME280;69156;55.932;-3.238;2023-09-07T00:34:56;101411.95;;;16.64;73.45
79690;BME280;69156;55.932;-3.238;2023-09-07T00:37:21;101408.58;;;16.65;73.15
79690;BME280;69156;55.932;-3.238;2023-09-07T00:39:46;101408.01;;;16.90;72.75
79690;BME280;69156;55.932;-3.238;2023-09-07T00:42:12;101401.90;;;17.00;72.15
79690;BME280;69156;55.932;-3.238;2023-09-07T00:44:37;101391.13;;;17.14;71.58
79690;BME280;69156;55.932;-3.238;2023-09-07T00:47:03;101380.80;;;17.07;71.16
79690;BME280;69156;55.932;-3.238;2023-09-07T00:49:28;101381.87;;;16.97;71.19
79690;BME280;69156;55.932;-3.238;2023-09-07T00:51:55;101380.67;;;17.04;71.47
79690;BME280;69156;55.932;-3.238;2023-09-07T00:54:20;101379.90;;;17.06;71.18
79690;BME280;69156;55.932;-3.238;2023-09-07T00:56:45;101378.89;;;16.84;72.07
79690;BME280;69156;55.932;-3.238;2023-09-07T00:59:11;101375.62;;;16.73;72.57
79690;BME280;69156;55.932;-3.238;2023-09-07T01:01:37;101369.03;;;16.59;72.87
79690;BME280;69156;55.932;-3.238;2023-09-07T01:04:02;101376.00;;;16.44;73.21
79690;BME280;69156;55.932;-3.238;2023-09-07T01:06:30;101371.07;;;16.33;73.63
79690;BME280;69156;55.932;-3.238;2023-09-07T01:08:55;101366.48;;;16.46;73.38
79690;BME280;69156;55.932;-3.238;2023-09-07T01:11:19;101363.07;;;16.33;73.61
79690;BME280;69156;55.932;-3.238;2023-09-07T01:13:43;101359.72;;;16.42;73.50
79690;BME280;69156;55.932;-3.238;2023-09-07T01:16:10;101368.51;;;16.35;73.69
79690;BME280;69156;55.932;-3.238;2023-09-07T01:18:35;101370.20;;;16.44;73.38
79690;BME280;69156;55.932;-3.238;2023-09-07T01:21:00;101367.91;;;16.52;73.11
79690;BME280;69156;55.932;-3.238;2023-09-07T01:23:25;101365.80;;;16.50;72.93
79690;BME280;69156;55.932;-3.238;2023-09-07T01:25:51;101365.02;;;16.34;73.14
79690;BME280;69156;55.932;-3.238;2023-09-07T01:28:17;101363.14;;;16.44;73.04
79690;BME280;69156;55.932;-3.238;2023-09-07T01:30:42;101365.47;;;16.49;73.00
79690;BME280;69156;55.932;-3.238;2023-09-07T01:33:07;101372.39;;;16.38;72.97
79690;BME280;69156;55.932;-3.238;2023-09-07T01:35:33;101376.19;;;16.34;73.04
79690;BME280;69156;55.932;-3.238;2023-09-07T01:37:58;101366.09;;;16.32;72.79
79690;BME280;69156;55.932;-3.238;2023-09-07T01:40:24;101364.83;;;16.28;72.93
79690;BME280;69156;55.932;-3.238;2023-09-07T01:42:49;101374.73;;;16.27;72.58
79690;BME280;69156;55.932;-3.238;2023-09-07T01:45:15;101380.78;;;16.37;72.45
79690;BME280;69156;55.932;-3.238;2023-09-07T01:47:41;101380.82;;;16.31;72.44
79690;BME280;69156;55.932;-3.238;2023-09-07T01:50:07;101380.70;;;16.25;72.50
79690;BME280;69156;55.932;-3.238;2023-09-07T01:52:33;101382.59;;;16.20;72.59
79690;BME280;69156;55.932;-3.238;2023-09-07T01:54:59;101383.81;;;16.22;72.60
79690;BME280;69156;55.932;-3.238;2023-09-07T01:57:25;101388.42;;;16.10;72.60
79690;BME280;69156;55.932;-3.238;2023-09-07T01:59:51;101386.75;;;16.18;72.47
79690;BME280;69156;55.932;-3.238;2023-09-07T02:02:17;101387.58;;;16.05;72.57
79690;BME280;69156;55.932;-3.238;2023-09-07T02:04:42;101394.77;;;16.17;72.60
79690;BME280;69156;55.932;-3.238;2023-09-07T02:07:08;101388.56;;;16.12;72.77
79690;BME280;69156;55.932;-3.238;2023-09-07T02:09:34;101385.52;;;16.10;72.77
79690;BME280;69156;55.932;-3.238;2023-09-07T02:11:59;101384.49;;;16.09;72.82
79690;BME280;69156;55.932;-3.238;2023-09-07T02:14:24;101387.54;;;16.11;72.75
79690;BME280;69156;55.932;-3.238;2023-09-07T02:16:50;101391.09;;;16.29;72.80
79690;BME280;69156;55.932;-3.238;2023-09-07T02:19:16;101393.43;;;16.04;72.87
79690;BME280;69156;55.932;-3.238;2023-09-07T02:21:42;101395.87;;;16.10;72.90
79690;BME280;69156;55.932;-3.238;2023-09-07T02:24:08;101388.97;;;16.07;73.03
79690;BME280;69156;55.932;-3.238;2023-09-07T02:26:33;101381.91;;;15.95;72.86
79690;BME280;69156;55.932;-3.238;2023-09-07T02:28:59;101389.70;;;15.85;72.89
79690;BME280;69156;55.932;-3.238;2023-09-07T02:31:25;101387.41;;;15.96;72.90
79690;BME280;69156;55.932;-3.238;2023-09-07T02:33:50;101384.07;;;16.00;72.88
79690;BME280;69156;55.932;-3.238;2023-09-07T02:36:15;101379.41;;;16.11;72.86
79690;BME280;69156;55.932;-3.238;2023-09-07T02:38:40;101368.81;;;15.95;73.04
79690;BME280;69156;55.932;-3.238;2023-09-07T02:41:05;101371.75;;;16.02;73.30
79690;BME280;69156;55.932;-3.238;2023-09-07T02:43:30;101373.89;;;16.02;73.12
79690;BME280;69156;55.932;-3.238;2023-09-07T02:45:55;101375.98;;;15.99;73.42
79690;BME280;69156;55.932;-3.238;2023-09-07T02:48:21;101378.64;;;15.94;73.63
79690;BME280;69156;55.932;-3.238;2023-09-07T02:50:48;101373.49;;;15.92;73.63
79690;BME280;69156;55.932;-3.238;2023-09-07T02:53:12;101361.87;;;15.97;73.54
79690;BME280;69156;55.932;-3.238;2023-09-07T02:55:39;101358.32;;;16.07;73.56
79690;BME280;69156;55.932;-3.238;2023-09-07T02:58:03;101356.22;;;16.11;73.86
79690;BME280;69156;55.932;-3.238;2023-09-07T03:00:29;101357.83;;;16.13;74.03
79690;BME280;69156;55.932;-3.238;2023-09-07T03:02:54;101361.26;;;16.02;74.06
79690;BME280;69156;55.932;-3.238;2023-09-07T03:05:19;101360.65;;;15.96;74.04
79690;BME280;69156;55.932;-3.238;2023-09-07T03:07:46;101358.68;;;16.01;73.81
79690;BME280;69156;55.932;-3.238;2023-09-07T03:10:10;101357.67;;;16.02;73.72
79690;BME280;69156;55.932;-3.238;2023-09-07T03:12:35;101359.65;;;16.03;73.67
79690;BME280;69156;55.932;-3.238;2023-09-07T03:15:00;101361.08;;;16.06;73.75
79690;BME280;69156;55.932;-3.238;2023-09-07T03:17:25;101367.88;;;16.11;73.58
79690;BME280;69156;55.932;-3.238;2023-09-07T03:19:50;101375.23;;;16.01;73.93
79690;BME280;69156;55.932;-3.238;2023-09-07T03:22:16;101383.96;;;16.10;74.03
79690;BME280;69156;55.932;-3.238;2023-09-07T03:24:42;101394.52;;;16.02;73.82
79690;BME280;69156;55.932;-3.238;2023-09-07T03:27:07;101398.97;;;16.08;73.51
79690;BME280;69156;55.932;-3.238;2023-09-07T03:29:33;101398.77;;;15.95;73.51
79690;BME280;69156;55.932;-3.238;2023-09-07T03:31:59;101392.93;;;16.06;73.27
79690;BME280;69156;55.932;-3.238;2023-09-07T03:34:25;101387.01;;;15.96;73.04
79690;BME280;69156;55.932;-3.238;2023-09-07T03:36:50;101380.93;;;16.09;72.94
79690;BME280;69156;55.932;-3.238;2023-09-07T03:39:16;101374.80;;;15.95;73.22
79690;BME280;69156;55.932;-3.238;2023-09-07T03:41:42;101370.32;;;16.01;72.85
79690;BME280;69156;55.932;-3.238;2023-09-07T03:44:07;101363.61;;;16.16;72.36
79690;BME280;69156;55.932;-3.238;2023-09-07T03:46:34;101358.19;;;16.05;72.48
79690;BME280;69156;55.932;-3.238;2023-09-07T03:48:59;101352.57;;;16.15;72.39
79690;BME280;69156;55.932;-3.238;2023-09-07T03:51:26;101348.62;;;16.11;72.11
79690;BME280;69156;55.932;-3.238;2023-09-07T03:53:51;101342.58;;;16.13;72.49
79690;BME280;69156;55.932;-3.238;2023-09-07T03:56:17;101340.43;;;16.03;72.36
79690;BME280;69156;55.932;-3.238;2023-09-07T03:58:43;101341.60;;;16.00;72.49
79690;BME280;69156;55.932;-3.238;2023-09-07T04:01:09;101338.56;;;15.99;72.94
79690;BME280;69156;55.932;-3.238;2023-09-07T04:03:35;101341.24;;;16.17;72.51
79690;BME280;69156;55.932;-3.238;2023-09-07T04:06:01;101334.96;;;16.27;72.11
79690;BME280;69156;55.932;-3.238;2023-09-07T04:08:26;101337.25;;;16.20;72.46
79690;BME280;69156;55.932;-3.238;2023-09-07T04:10:52;101338.50;;;16.10;73.08
79690;BME280;69156;55.932;-3.238;2023-09-07T04:13:19;101336.75;;;15.89;74.21
79690;BME280;69156;55.932;-3.238;2023-09-07T04:15:45;101340.44;;;15.84;74.54
79690;BME280;69156;55.932;-3.238;2023-09-07T04:18:11;101348.62;;;15.77;74.86
79690;BME280;69156;55.932;-3.238;2023-09-07T04:20:36;101355.57;;;15.83;75.27
79690;BME280;69156;55.932;-3.238;2023-09-07T04:23:01;101362.12;;;15.72;74.88
79690;BME280;69156;55.932;-3.238;2023-09-07T04:25:27;101360.77;;;15.95;73.67
79690;BME280;69156;55.932;-3.238;2023-09-07T04:27:52;101364.37;;;16.01;72.86
79690;BME280;69156;55.932;-3.238;2023-09-07T04:30:18;101362.62;;;16.22;72.38
79690;BME280;69156;55.932;-3.238;2023-09-07T04:32:43;101361.53;;;16.25;72.48
79690;BME280;69156;55.932;-3.238;2023-09-07T04:35:09;101364.27;;;16.09;73.16
79690;BME280;69156;55.932;-3.238;2023-09-07T04:37:34;101364.95;;;15.87;73.78
79690;BME280;69156;55.932;-3.238;2023-09-07T04:39:59;101371.58;;;15.76;74.23
79690;BME280;69156;55.932;-3.238;2023-09-07T04:42:24;101367.81;;;15.97;74.48
79690;BME280;69156;55.932;-3.238;2023-09-07T04:44:50;101366.81;;;16.04;74.27
79690;BME280;69156;55.932;-3.238;2023-09-07T04:47:16;101364.34;;;15.81;74.81
79690;BME280;69156;55.932;-3.238;2023-09-07T04:49:42;101371.32;;;15.81;75.64
79690;BME280;69156;55.932;-3.238;2023-09-07T04:52:07;101371.67;;;15.64;76.28
79690;BME280;69156;55.932;-3.238;2023-09-07T04:54:33;101374.58;;;15.85;76.21
79690;BME280;69156;55.932;-3.238;2023-09-07T04:56:59;101377.62;;;16.06;75.69
79690;BME280;69156;55.932;-3.238;2023-09-07T04:59:24;101376.59;;;16.15;75.24
79690;BME280;69156;55.932;-3.238;2023-09-07T05:01:50;101376.15;;;15.80;75.04
79690;BME280;69156;55.932;-3.238;2023-09-07T05:04:16;101381.43;;;15.68;75.01
79690;BME280;69156;55.932;-3.238;2023-09-07T05:06:41;101378.02;;;15.71;75.17
79690;BME280;69156;55.932;-3.238;2023-09-07T05:09:07;101377.47;;;15.73;74.91
79690;BME280;69156;55.932;-3.238;2023-09-07T05:11:32;101380.29;;;15.76;75.20
79690;BME280;69156;55.932;-3.238;2023-09-07T05:13:57;101381.64;;;15.74;75.19
79690;BME280;69156;55.932;-3.238;2023-09-07T05:16:23;101384.25;;;15.63;75.34
79690;BME280;69156;55.932;-3.238;2023-09-07T05:18:48;101386.74;;;15.56;75.54
79690;BME280;69156;55.932;-3.238;2023-09-07T05:21:14;101389.72;;;15.61;75.85
79690;BME280;69156;55.932;-3.238;2023-09-07T05:23:39;101390.61;;;15.45;76.41
79690;BME280;69156;55.932;-3.238;2023-09-07T05:26:04;101389.22;;;15.33;77.30
79690;BME280;69156;55.932;-3.238;2023-09-07T05:28:30;101390.31;;;15.39;77.66
79690;BME280;69156;55.932;-3.238;2023-09-07T05:30:55;101394.05;;;15.37;78.16
79690;BME280;69156;55.932;-3.238;2023-09-07T05:33:21;101393.35;;;15.41;78.41
79690;BME280;69156;55.932;-3.238;2023-09-07T05:35:47;101393.91;;;15.38;78.50
79690;BME280;69156;55.932;-3.238;2023-09-07T05:38:12;101395.44;;;15.33;78.67
79690;BME280;69156;55.932;-3.238;2023-09-07T05:40:40;101392.10;;;15.52;78.52
79690;BME280;69156;55.932;-3.238;2023-09-07T05:43:04;101393.21;;;15.58;78.45
79690;BME280;69156;55.932;-3.238;2023-09-07T05:45:30;101397.15;;;15.60;78.39
79690;BME280;69156;55.932;-3.238;2023-09-07T05:47:55;101402.30;;;15.48;78.40
79690;BME280;69156;55.932;-3.238;2023-09-07T05:50:20;101402.67;;;15.71;78.25
79690;BME280;69156;55.932;-3.238;2023-09-07T05:52:46;101405.94;;;15.68;78.06
79690;BME280;69156;55.932;-3.238;2023-09-07T05:55:12;101401.21;;;15.73;77.90
79690;BME280;69156;55.932;-3.238;2023-09-07T05:57:37;101402.12;;;15.61;77.98
79690;BME280;69156;55.932;-3.238;2023-09-07T06:00:03;101404.43;;;15.57;77.99
79690;BME280;69156;55.932;-3.238;2023-09-07T06:02:28;101410.17;;;15.62;78.02
79690;BME280;69156;55.932;-3.238;2023-09-07T06:04:53;101419.34;;;15.75;77.79
79690;BME280;69156;55.932;-3.238;2023-09-07T06:07:19;101424.90;;;15.65;77.99
79690;BME280;69156;55.932;-3.238;2023-09-07T06:09:44;101422.19;;;15.79;78.03
79690;BME280;69156;55.932;-3.238;2023-09-07T06:12:10;101419.13;;;16.03;77.63
79690;BME280;69156;55.932;-3.238;2023-09-07T06:14:35;101416.91;;;16.06;77.38
79690;BME280;69156;55.932;-3.238;2023-09-07T06:17:00;101418.60;;;15.83;77.54
79690;BME280;69156;55.932;-3.238;2023-09-07T06:19:26;101420.72;;;15.95;77.49
79690;BME280;69156;55.932;-3.238;2023-09-07T06:21:51;101422.14;;;16.06;77.13
79690;BME280;69156;55.932;-3.238;2023-09-07T06:24:17;101421.48;;;16.18;76.74
79690;BME280;69156;55.932;-3.238;2023-09-07T06:26:43;101424.23;;;16.24;76.73
79690;BME280;69156;55.932;-3.238;2023-09-07T06:29:08;101423.03;;;16.20;76.65
79690;BME280;69156;55.932;-3.238;2023-09-07T06:31:34;101425.31;;;16.18;76.61
79690;BME280;69156;55.932;-3.238;2023-09-07T06:33:59;101424.17;;;16.23;76.69
79690;BME280;69156;55.932;-3.238;2023-09-07T06:36:24;101423.49;;;16.20;76.62
79690;BME280;69156;55.932;-3.238;2023-09-07T06:38:50;101426.09;;;16.10;76.93
79690;BME280;69156;55.932;-3.238;2023-09-07T06:41:15;101428.14;;;16.11;77.20
79690;BME280;69156;55.932;-3.238;2023-09-07T06:43:42;101429.98;;;16.33;76.94
79690;BME280;69156;55.932;-3.238;2023-09-07T06:46:08;101430.45;;;16.35;76.56
79690;BME280;69156;55.932;-3.238;2023-09-07T06:48:33;101432.44;;;16.41;76.39
79690;BME280;69156;55.932;-3.238;2023-09-07T06:51:01;101436.55;;;16.46;76.06
79690;BME280;69156;55.932;-3.238;2023-09-07T06:53:23;101441.50;;;16.37;76.01
79690;BME280;69156;55.932;-3.238;2023-09-07T06:55:57;101445.01;;;16.29;76.31
79690;BME280;69156;55.932;-3.238;2023-09-07T06:58:15;101441.90;;;16.25;76.69
79690;BME280;69156;55.932;-3.238;2023-09-07T07:00:41;101435.96;;;16.26;76.35
79690;BME280;69156;55.932;-3.238;2023-09-07T07:03:07;101432.95;;;16.29;76.40
79690;BME280;69156;55.932;-3.238;2023-09-07T07:05:33;101434.31;;;16.18;76.84
79690;BME280;69156;55.932;-3.238;2023-09-07T07:07:58;101425.73;;;16.30;76.68
79690;BME280;69156;55.932;-3.238;2023-09-07T07:10:23;101430.12;;;16.28;77.04
79690;BME280;69156;55.932;-3.238;2023-09-07T07:12:49;101432.33;;;16.29;77.17
79690;BME280;69156;55.932;-3.238;2023-09-07T07:15:15;101431.36;;;16.52;76.92
79690;BME280;69156;55.932;-3.238;2023-09-07T07:17:41;101431.56;;;16.57;76.43
79690;BME280;69156;55.932;-3.238;2023-09-07T07:20:07;101432.49;;;16.64;76.00
79690;BME280;69156;55.932;-3.238;2023-09-07T07:22:32;101431.95;;;16.57;75.56
79690;BME280;69156;55.932;-3.238;2023-09-07T07:24:58;101430.22;;;16.44;75.78
79690;BME280;69156;55.932;-3.238;2023-09-07T07:27:24;101434.47;;;16.24;76.20
79690;BME280;69156;55.932;-3.238;2023-09-07T07:29:51;101442.30;;;16.57;76.23
79690;BME280;69156;55.932;-3.238;2023-09-07T07:32:15;101439.55;;;16.31;75.91
79690;BME280;69156;55.932;-3.238;2023-09-07T07:34:40;101437.22;;;16.42;75.97
79690;BME280;69156;55.932;-3.238;2023-09-07T07:37:06;101440.56;;;16.60;75.69
79690;BME280;69156;55.932;-3.238;2023-09-07T07:39:31;101445.44;;;16.52;75.14
79690;BME280;69156;55.932;-3.238;2023-09-07T07:41:58;101446.28;;;16.44;74.97
79690;BME280;69156;55.932;-3.238;2023-09-07T07:44:23;101449.77;;;16.58;74.84
79690;BME280;69156;55.932;-3.238;2023-09-07T07:46:49;101450.83;;;16.86;74.16
79690;BME280;69156;55.932;-3.238;2023-09-07T07:49:15;101440.40;;;16.74;74.08
79690;BME280;69156;55.932;-3.238;2023-09-07T07:51:40;101425.41;;;16.84;73.77
79690;BME280;69156;55.932;-3.238;2023-09-07T07:54:06;101419.04;;;16.90;73.48
79690;BME280;69156;55.932;-3.238;2023-09-07T07:56:31;101421.09;;;16.97;73.28
79690;BME280;69156;55.932;-3.238;2023-09-07T07:58:57;101421.95;;;16.87;73.50
79690;BME280;69156;55.932;-3.238;2023-09-07T08:01:22;101426.38;;;16.90;73.81
79690;BME280;69156;55.932;-3.238;2023-09-07T08:03:48;101434.21;;;16.99;73.50
79690;BME280;69156;55.932;-3.238;2023-09-07T08:06:14;101432.99;;;17.09;73.44
79690;BME280;69156;55.932;-3.238;2023-09-07T08:08:39;101431.61;;;16.92;73.55
79690;BME280;69156;55.932;-3.238;2023-09-07T08:11:04;101431.45;;;17.10;73.47
79690;BME280;69156;55.932;-3.238;2023-09-07T08:13:30;101424.04;;;16.93;73.49
79690;BME280;69156;55.932;-3.238;2023-09-07T08:15:55;101422.71;;;16.82;73.87
79690;BME280;69156;55.932;-3.238;2023-09-07T08:18:21;101421.50;;;17.00;73.96
79690;BME280;69156;55.932;-3.238;2023-09-07T08:20:46;101421.63;;;17.20;73.55
79690;BME280;69156;55.932;-3.238;2023-09-07T08:23:12;101427.04;;;17.05;73.53
79690;BME280;69156;55.932;-3.238;2023-09-07T08:25:37;101427.42;;;17.16;73.18
79690;BME280;69156;55.932;-3.238;2023-09-07T08:28:03;101429.73;;;17.27;72.92
79690;BME280;69156;55.932;-3.238;2023-09-07T08:30:28;101433.64;;;17.09;73.05
79690;BME280;69156;55.932;-3.238;2023-09-07T08:32:54;101431.97;;;17.17;72.70
79690;BME280;69156;55.932;-3.238;2023-09-07T08:35:20;101434.03;;;17.38;72.38
79690;BME280;69156;55.932;-3.238;2023-09-07T08:37:46;101441.95;;;17.71;71.80
79690;BME280;69156;55.932;-3.238;2023-09-07T08:40:12;101449.49;;;17.70;71.58
79690;BME280;69156;55.932;-3.238;2023-09-07T08:42:38;101450.90;;;17.57;71.66
79690;BME280;69156;55.932;-3.238;2023-09-07T08:45:03;101446.73;;;17.58;71.78
79690;BME280;69156;55.932;-3.238;2023-09-07T08:47:28;101441.47;;;17.83;71.47
79690;BME280;69156;55.932;-3.238;2023-09-07T08:49:53;101434.50;;;17.91;71.03
79690;BME280;69156;55.932;-3.238;2023-09-07T08:52:19;101430.68;;;18.02;70.67
79690;BME280;69156;55.932;-3.238;2023-09-07T08:54:45;101424.87;;;18.25;70.23
79690;BME280;69156;55.932;-3.238;2023-09-07T08:57:10;101428.09;;;18.08;70.31
79690;BME280;69156;55.932;-3.238;2023-09-07T08:59:34;101422.45;;;18.31;70.23
79690;BME280;69156;55.932;-3.238;2023-09-07T09:02:00;101424.89;;;18.47;69.59
79690;BME280;69156;55.932;-3.238;2023-09-07T09:04:26;101427.66;;;18.46;69.46
79690;BME280;69156;55.932;-3.238;2023-09-07T09:06:50;101432.48;;;18.44;69.27
79690;BME280;69156;55.932;-3.238;2023-09-07T09:09:22;101430.99;;;18.45;69.69
79690;BME280;69156;55.932;-3.238;2023-09-07T09:11:43;101424.36;;;18.24;69.90
79690;BME280;69156;55.932;-3.238;2023-09-07T09:14:08;101422.28;;;18.26;70.44
79690;BME280;69156;55.932;-3.238;2023-09-07T09:16:33;101421.51;;;18.60;69.97
79690;BME280;69156;55.932;-3.238;2023-09-07T09:18:59;101416.49;;;18.59;69.71
79690;BME280;69156;55.932;-3.238;2023-09-07T09:21:25;101415.53;;;18.58;69.42
79690;BME280;69156;55.932;-3.238;2023-09-07T09:23:51;101415.02;;;18.38;69.85
79690;BME280;69156;55.932;-3.238;2023-09-07T09:26:15;101409.05;;;18.63;69.45
79690;BME280;69156;55.932;-3.238;2023-09-07T09:28:41;101406.58;;;18.78;69.11
79690;BME280;69156;55.932;-3.238;2023-09-07T09:31:07;101399.90;;;18.70;68.89
79690;BME280;69156;55.932;-3.238;2023-09-07T09:33:33;101398.64;;;18.64;68.87
79690;BME280;69156;55.932;-3.238;2023-09-07T09:35:58;101396.18;;;18.70;68.97
79690;BME280;69156;55.932;-3.238;2023-09-07T09:38:23;101397.12;;;18.89;68.61
79690;BME280;69156;55.932;-3.238;2023-09-07T09:40:49;101399.49;;;18.94;68.29
79690;BME280;69156;55.932;-3.238;2023-09-07T09:43:14;101403.52;;;19.09;68.04
79690;BME280;69156;55.932;-3.238;2023-09-07T09:45:39;101412.74;;;19.09;67.52
79690;BME280;69156;55.932;-3.238;2023-09-07T09:48:06;101418.10;;;19.07;67.50
79690;BME280;69156;55.932;-3.238;2023-09-07T09:50:31;101418.61;;;19.05;67.53
79690;BME280;69156;55.932;-3.238;2023-09-07T09:52:56;101416.22;;;18.93;68.12
79690;BME280;69156;55.932;-3.238;2023-09-07T09:55:22;101424.91;;;19.09;67.93
79690;BME280;69156;55.932;-3.238;2023-09-07T09:57:47;101419.85;;;19.18;67.49
79690;BME280;69156;55.932;-3.238;2023-09-07T10:00:13;101412.60;;;19.18;67.62
79690;BME280;69156;55.932;-3.238;2023-09-07T10:02:39;101404.21;;;18.99;67.50
79690;BME280;69156;55.932;-3.238;2023-09-07T10:05:05;101399.46;;;19.09;67.66
79690;BME280;69156;55.932;-3.238;2023-09-07T10:07:41;101397.25;;;19.13;67.90
79690;BME280;69156;55.932;-3.238;2023-09-07T10:09:56;101400.14;;;19.35;67.20
79690;BME280;69156;55.932;-3.238;2023-09-07T10:12:27;101402.07;;;19.38;66.85
79690;BME280;69156;55.932;-3.238;2023-09-07T10:14:47;101406.23;;;19.37;66.66
79690;BME280;69156;55.932;-3.238;2023-09-07T10:17:22;101404.46;;;19.51;66.53
79690;BME280;69156;55.932;-3.238;2023-09-07T10:19:37;101398.68;;;19.57;66.12
79690;BME280;69156;55.932;-3.238;2023-09-07T10:22:03;101393.06;;;19.75;65.68
79690;BME280;69156;55.932;-3.238;2023-09-07T10:24:29;101385.17;;;20.09;65.29
79690;BME280;69156;55.932;-3.238;2023-09-07T10:26:59;101384.19;;;20.37;64.80
79690;BME280;69156;55.932;-3.238;2023-09-07T10:29:19;101386.04;;;20.49;64.40
79690;BME280;69156;55.932;-3.238;2023-09-07T10:31:51;101392.06;;;20.41;64.36
79690;BME280;69156;55.932;-3.238;2023-09-07T10:34:11;101393.34;;;20.58;64.17
79690;BME280;69156;55.932;-3.238;2023-09-07T10:36:37;101388.87;;;20.77;63.69
79690;BME280;69156;55.932;-3.238;2023-09-07T10:39:02;101389.43;;;20.76;63.32
79690;BME280;69156;55.932;-3.238;2023-09-07T10:41:27;101385.37;;;20.90;63.05
79690;BME280;69156;55.932;-3.238;2023-09-07T10:43:54;101388.24;;;21.01;62.05
79690;BME280;69156;55.932;-3.238;2023-09-07T10:46:19;101385.86;;;21.08;61.97
79690;BME280;69156;55.932;-3.238;2023-09-07T10:48:43;101384.71;;;21.39;61.47
79690;BME280;69156;55.932;-3.238;2023-09-07T10:51:10;101383.24;;;21.43;60.88
79690;BME280;69156;55.932;-3.238;2023-09-07T10:53:35;101384.90;;;21.53;60.34
79690;BME280;69156;55.932;-3.238;2023-09-07T10:56:04;101386.93;;;21.49;60.20
79690;BME280;69156;55.932;-3.238;2023-09-07T10:58:27;101389.62;;;21.59;60.41
79690;BME280;69156;55.932;-3.238;2023-09-07T11:00:52;101387.87;;;21.53;60.08
79690;BME280;69156;55.932;-3.238;2023-09-07T11:03:16;101385.05;;;21.82;59.74
79690;BME280;69156;55.932;-3.238;2023-09-07T11:05:41;101383.31;;;21.74;59.50
79690;BME280;69156;55.932;-3.238;2023-09-07T11:08:07;101385.19;;;21.84;59.24
79690;BME280;69156;55.932;-3.238;2023-09-07T11:10:33;101382.45;;;21.70;59.24
79690;BME280;69156;55.932;-3.238;2023-09-07T11:13:02;101379.89;;;21.95;59.16
79690;BME280;69156;55.932;-3.238;2023-09-07T11:15:24;101377.93;;;21.86;58.27
79690;BME280;69156;55.932;-3.238;2023-09-07T11:17:50;101378.09;;;21.74;58.18
79690;BME280;69156;55.932;-3.238;2023-09-07T11:20:14;101383.09;;;21.78;57.60
79690;BME280;69156;55.932;-3.238;2023-09-07T11:22:40;101395.09;;;21.41;58.38
79690;BME280;69156;55.932;-3.238;2023-09-07T11:25:06;101398.84;;;21.39;58.82
79690;BME280;69156;55.932;-3.238;2023-09-07T11:27:31;101404.22;;;21.28;58.80
79690;BME280;69156;55.932;-3.238;2023-09-07T11:29:57;101397.32;;;21.17;59.17
79690;BME280;69156;55.932;-3.238;2023-09-07T11:32:22;101393.16;;;21.29;59.14
79690;BME280;69156;55.932;-3.238;2023-09-07T11:34:47;101382.78;;;21.26;59.45
79690;BME280;69156;55.932;-3.238;2023-09-07T11:37:12;101380.63;;;21.37;60.09
79690;BME280;69156;55.932;-3.238;2023-09-07T11:39:38;101365.28;;;21.52;59.94
79690;BME280;69156;55.932;-3.238;2023-09-07T11:42:03;101360.62;;;21.49;59.52
79690;BME280;69156;55.932;-3.238;2023-09-07T11:44:28;101362.02;;;21.52;59.39
79690;BME280;69156;55.932;-3.238;2023-09-07T11:46:54;101365.04;;;21.24;60.08
79690;BME280;69156;55.932;-3.238;2023-09-07T11:49:19;101365.28;;;21.13;60.62
79690;BME280;69156;55.932;-3.238;2023-09-07T11:51:44;101362.31;;;20.95;61.00
79690;BME280;69156;55.932;-3.238;2023-09-07T11:54:10;101356.83;;;20.93;60.72
79690;BME280;69156;55.932;-3.238;2023-09-07T11:56:35;101361.66;;;20.79;61.22
79690;BME280;69156;55.932;-3.238;2023-09-07T11:59:01;101365.98;;;20.65;61.88
79690;BME280;69156;55.932;-3.238;2023-09-07T12:01:26;101354.70;;;20.53;62.50
79690;BME280;69156;55.932;-3.238;2023-09-07T12:03:52;101338.75;;;20.49;62.83
79690;BME280;69156;55.932;-3.238;2023-09-07T12:06:17;101316.39;;;20.40;63.30
79690;BME280;69156;55.932;-3.238;2023-09-07T12:08:47;101299.46;;;20.39;63.36
79690;BME280;69156;55.932;-3.238;2023-09-07T12:11:07;101306.12;;;20.45;63.62
79690;BME280;69156;55.932;-3.238;2023-09-07T12:13:32;101311.35;;;20.42;63.35
79690;BME280;69156;55.932;-3.238;2023-09-07T12:15:58;101325.48;;;20.17;63.68
79690;BME280;69156;55.932;-3.238;2023-09-07T12:18:23;101343.51;;;20.29;63.73
79690;BME280;69156;55.932;-3.238;2023-09-07T12:20:49;101340.06;;;20.21;63.61
79690;BME280;69156;55.932;-3.238;2023-09-07T12:23:14;101333.90;;;20.29;63.86
79690;BME280;69156;55.932;-3.238;2023-09-07T12:25:40;101334.39;;;20.31;64.49
79690;BME280;69156;55.932;-3.238;2023-09-07T12:28:05;101325.94;;;20.22;65.04
79690;BME280;69156;55.932;-3.238;2023-09-07T12:30:32;101318.46;;;19.96;65.48